Time;durP1;ratioP1;P1;durP2;ratioP2;P2;SDS_P1;SDS_P2;PMS_P1;PMS_P2;Temp;Humidity;BMP_temperature;BMP_pressure;BME280_temperature;BME280_humidity;BME280_pressure;Samples;Min_cycle;Max_cycle;Signal;HPM_P1;HPM_P2
2023/05/23 00:01:15;;;;;;;2.60;1.33;;;;;;;;;;4960491;28;92703;-52
2023/05/23 00:03:44;;;;;;;2.97;1.60;;;;;;;;;;4960665;28;92119;-52
2023/05/23 00:06:13;;;;;;;1.60;1.13;;;;;;;;;;4960608;28;92155;-52
2023/05/23 00:08:43;;;;;;;1.27;1.00;;;;;;;;;;4961118;28;94276;-52
2023/05/23 00:11:12;;;;;;;2.97;1.43;;;;;;;;;;4961008;28;92949;-52
2023/05/23 00:13:40;;;;;;;1.60;1.40;;;;;;;;;;4956589;28;92055;-52
2023/05/23 00:16:09;;;;;;;1.80;1.10;;;;;;;;;;4961029;28;92074;-52
2023/05/23 00:18:39;;;;;;;2.53;1.60;;;;;;;;;;4959559;28;94086;-52
2023/05/23 00:21:08;;;;;;;1.63;1.30;;;;;;;;;;4960334;28;94984;-52
2023/05/23 00:23:37;;;;;;;2.30;1.50;;;;;;;;;;4960492;28;92020;-52
2023/05/23 00:26:07;;;;;;;2.37;1.40;;;;;;;;;;4960520;28;92250;-52
2023/05/23 00:28:35;;;;;;;4.63;1.80;;;;;;;;;;4961018;28;94274;-52
2023/05/23 00:31:03;;;;;;;2.50;1.40;;;;;;;;;;4960510;28;94084;-52
2023/05/23 00:33:33;;;;;;;2.53;1.50;;;;;;;;;;4961322;28;92170;-52
2023/05/23 00:36:01;;;;;;;2.23;1.63;;;;;;;;;;4961740;28;91217;-52
2023/05/23 00:38:29;;;;;;;4.93;1.03;;;;;;;;;;4960964;28;94280;-52
2023/05/23 00:40:58;;;;;;;2.80;1.50;;;;;;;;;;4961267;28;93847;-52
2023/05/23 00:43:28;;;;;;;2.23;1.43;;;;;;;;;;4960777;28;92889;-52
2023/05/23 00:45:56;;;;;;;2.97;1.37;;;;;;;;;;4961443;28;92077;-52
2023/05/23 00:48:25;;;;;;;1.87;1.00;;;;;;;;;;4960471;28;94346;-52
2023/05/23 00:50:53;;;;;;;1.83;1.30;;;;;;;;;;4960377;28;93991;-52
2023/05/23 00:53:21;;;;;;;2.40;1.77;;;;;;;;;;4960888;28;92101;-52
2023/05/23 00:55:50;;;;;;;2.80;1.53;;;;;;;;;;4960192;28;92068;-52
2023/05/23 00:58:18;;;;;;;2.30;1.30;;;;;;;;;;4959600;28;94232;-52
2023/05/23 01:00:49;;;;;;;3.23;1.37;;;;;;;;;;4958772;28;92871;-52
2023/05/23 01:03:17;;;;;;;2.57;1.00;;;;;;;;;;4960822;28;91863;-52
2023/05/23 01:05:46;;;;;;;2.57;1.40;;;;;;;;;;4960874;28;92021;-52
2023/05/23 01:08:15;;;;;;;2.37;1.30;;;;;;;;;;4959639;28;94162;-52
2023/05/23 01:10:43;;;;;;;2.23;1.47;;;;;;;;;;4959391;28;94702;-52
2023/05/23 01:13:14;;;;;;;2.27;1.30;;;;;;;;;;4960227;28;92062;-52
2023/05/23 01:15:43;;;;;;;2.50;1.50;;;;;;;;;;4960696;28;91961;-52
2023/05/23 01:18:14;;;;;;;2.43;1.10;;;;;;;;;;4960809;28;94337;-52
2023/05/23 01:20:45;;;;;;;1.33;1.03;;;;;;;;;;4959961;28;92767;-52
2023/05/23 01:23:28;;;;;;;2.40;1.80;;;;;;;;;;4960918;28;92046;-52
2023/05/23 01:26:03;;;;;;;1.33;1.20;;;;;;;;;;4959749;28;91429;-52
2023/05/23 01:28:34;;;;;;;1.83;1.10;;;;;;;;;;4959498;28;93112;-52
2023/05/23 01:31:03;;;;;;;1.47;0.83;;;;;;;;;;4954107;28;94044;-52
2023/05/23 01:33:31;;;;;;;2.63;1.17;;;;;;;;;;4959498;28;93064;-52
2023/05/23 01:36:01;;;;;;;2.10;1.20;;;;;;;;;;4960125;28;92148;-52
2023/05/23 01:38:29;;;;;;;1.43;1.23;;;;;;;;;;4960234;28;94338;-52
2023/05/23 01:40:57;;;;;;;2.30;1.50;;;;;;;;;;4960337;28;93951;-52
2023/05/23 01:43:26;;;;;;;1.17;1.07;;;;;;;;;;4959963;28;91895;-52
2023/05/23 01:45:55;;;;;;;1.47;1.03;;;;;;;;;;4960196;28;92121;-52
2023/05/23 01:48:24;;;;;;;1.00;0.93;;;;;;;;;;4957315;28;94289;-52
2023/05/23 01:50:52;;;;;;;1.10;1.00;;;;;;;;;;4958315;28;94132;-52
2023/05/23 01:53:21;;;;;;;1.40;1.10;;;27.00;59.80;;;;;;4959632;28;92247;-52
2023/05/23 01:55:50;;;;;;;1.47;1.13;;;27.10;68.90;;;;;;4959943;28;92057;-52
2023/05/23 01:58:18;;;;;;;1.30;1.20;;;27.20;67.80;;;;;;4957806;28;94143;-52
2023/05/23 02:00:46;;;;;;;3.20;1.17;;;27.00;67.60;;;;;;4959653;28;95003;-52
2023/05/23 02:03:15;;;;;;;3.07;1.50;;;27.00;67.70;;;;;;4958609;28;92126;-52
2023/05/23 02:05:43;;;;;;;1.30;0.93;;;27.00;73.30;;;;;;4960690;28;92037;-52
2023/05/23 02:08:11;;;;;;;2.27;1.07;;;27.00;76.60;;;;;;4959326;28;94170;-52
2023/05/23 02:10:40;;;;;;;3.83;1.40;;;;;;;;;;4959166;28;92917;-52
2023/05/23 02:13:08;;;;;;;2.70;1.50;;;;;;;;;;4958954;28;92706;-52
2023/05/23 02:15:36;;;;;;;1.50;1.10;;;;;;;;;;4960038;28;91965;-52
2023/05/23 02:18:05;;;;;;;3.77;1.50;;;;;;;;;;4959454;28;94212;-52
2023/05/23 02:20:35;;;;;;;2.30;1.30;;;;;;;;;;4959549;28;93027;-52
2023/05/23 02:23:03;;;;;;;0.80;0.80;;;;;;;;;;4958602;28;93004;-52
2023/05/23 02:25:31;;;;;;;1.90;1.10;;;;;;;;;;4959771;28;92654;-52
2023/05/23 02:28:00;;;;;;;1.00;0.90;;;;;;;;;;4958907;28;94293;-52
2023/05/23 02:30:28;;;;;;;1.10;1.00;;;;;;;;;;4959442;28;92943;-52
2023/05/23 02:32:57;;;;;;;1.43;1.03;;;;;;;;;;4959500;28;92125;-52
2023/05/23 02:35:25;;;;;;;1.00;0.90;;;;;;;;;;4959792;28;92132;-52
2023/05/23 02:37:55;;;;;;;1.43;1.10;;;;;;;;;;4959587;28;93155;-52
2023/05/23 02:40:23;;;;;;;1.17;1.10;;;;;;;;;;4960126;28;93949;-52
2023/05/23 02:42:51;;;;;;;1.10;1.00;;;;;;;;;;4959477;28;92083;-52
2023/05/23 02:45:20;;;;;;;3.33;1.40;;;;;;;;;;4959475;28;92104;-52
2023/05/23 02:47:48;;;;;;;3.33;1.40;;;;;;;;;;4957978;28;94263;-52
2023/05/23 02:50:17;;;;;;;1.10;0.87;;;;;;;;;;4959207;28;94773;-52
2023/05/23 02:52:45;;;;;;;1.43;1.10;;;;;;;;;;4958729;28;92096;-52
2023/05/23 02:55:15;;;;;;;1.50;0.90;;;;;;;;;;4958085;28;92083;-52
2023/05/23 02:57:43;;;;;;;1.50;1.00;;;;;;;;;;4958530;28;94225;-52
2023/05/23 03:00:12;;;;;;;1.37;1.27;;;;;;;;;;4940799;28;92973;-52
2023/05/23 03:02:40;;;;;;;2.20;1.10;;;;;;;;;;4957155;28;92031;-52
2023/05/23 03:05:09;;;;;;;2.60;1.30;;;;;;;;;;4959554;28;91495;-52
2023/05/23 03:07:37;;;;;;;1.23;1.00;;;;;;;;;;4958122;28;94377;-52
2023/05/23 03:10:06;;;;;;;2.73;0.73;;;;;;;;;;4958590;28;92944;-52
2023/05/23 03:12:36;;;;;;;1.87;0.90;;;;;;;;;;4957669;28;92989;-52
2023/05/23 03:15:05;;;;;;;1.10;0.90;;;;;;;;;;4959896;28;92073;-52
2023/05/23 03:17:33;;;;;;;2.43;0.83;;;;;;;;;;4961538;28;93265;-52
2023/05/23 03:20:02;;;;;;;1.57;1.20;;;26.70;59.40;;;;;;4961670;28;92946;-52
2023/05/23 03:22:30;;;;;;;0.97;0.77;;;26.90;60.70;;;;;;4962726;28;92114;-52
2023/05/23 03:24:58;;;;;;;3.00;1.00;;;26.80;61.00;;;;;;4961735;28;92088;-52
2023/05/23 03:27:26;;;;;;;2.10;1.07;;;26.80;61.50;;;;;;4961409;28;92144;-52
2023/05/23 03:29:56;;;;;;;1.53;0.80;;;;;;;;;;4961148;28;93985;-52
2023/05/23 03:32:24;;;;;;;2.90;1.10;;;26.80;68.00;;;;;;4962359;28;92054;-52
2023/05/23 03:34:52;;;;;;;2.67;0.80;;;26.80;68.00;;;;;;4962412;28;92150;-52
2023/05/23 03:37:20;;;;;;;3.00;1.10;;;26.80;67.70;;;;;;4961531;28;95221;-52
2023/05/23 03:39:48;;;;;;;1.10;1.00;;;26.80;67.70;;;;;;4961140;28;95043;-52
2023/05/23 03:42:18;;;;;;;1.20;0.90;;;26.80;68.00;;;;;;4961619;28;93204;-52
2023/05/23 03:44:46;;;;;;;2.73;0.90;;;26.80;68.60;;;;;;4962237;28;92085;-52
2023/05/23 03:47:15;;;;;;;2.80;1.13;;;26.80;69.00;;;;;;4961188;28;93269;-52
2023/05/23 03:49:44;;;;;;;1.20;1.07;;;26.80;70.10;;;;;;4961499;28;93748;-52
2023/05/23 03:52:12;;;;;;;3.70;1.03;;;26.80;71.40;;;;;;4961354;28;92094;-52
2023/05/23 03:54:40;;;;;;;2.23;1.23;;;26.80;73.80;;;;;;4961656;28;91428;-52
2023/05/23 03:57:08;;;;;;;1.23;0.97;;;26.80;73.10;;;;;;4961071;28;94213;-52
2023/05/23 03:59:36;;;;;;;2.47;1.30;;;26.70;71.90;;;;;;4961199;28;94436;-52
2023/05/23 04:02:04;;;;;;;1.40;1.00;;;26.70;73.40;;;;;;4960648;28;93116;-52
2023/05/23 04:04:34;;;;;;;2.23;1.00;;;;;;;;;;4961752;28;92450;-52
2023/05/23 04:07:04;;;;;;;1.63;0.93;;;26.70;77.30;;;;;;4961233;28;94289;-52
2023/05/23 04:09:32;;;;;;;2.27;0.83;;;;;;;;;;4960422;28;93978;-52
2023/05/23 04:12:01;;;;;;;4.03;0.90;;;26.70;82.30;;;;;;4961036;28;92104;-52
2023/05/23 04:14:29;;;;;;;1.67;0.80;;;;;;;;;;4961371;28;92373;-52
2023/05/23 04:16:57;;;;;;;1.27;0.80;;;;;;;;;;4961330;28;93293;-52
2023/05/23 04:19:26;;;;;;;1.70;1.20;;;;;;;;;;4960920;28;94057;-52
2023/05/23 04:21:55;;;;;;;3.97;0.90;;;;;;;;;;4960030;28;92144;-52
2023/05/23 04:24:24;;;;;;;1.70;0.97;;;;;;;;;;4956390;28;92284;-52
2023/05/23 04:26:55;;;;;;;3.60;1.40;;;;;;;;;;4958986;28;95260;-52
2023/05/23 04:29:25;;;;;;;1.47;0.87;;;;;;;;;;4959622;28;95033;-52
2023/05/23 04:31:53;;;;;;;1.47;1.27;;;;;;;;;;4961371;28;92077;-52
2023/05/23 04:34:22;;;;;;;3.23;1.10;;;;;;;;;;4959739;28;92148;-52
2023/05/23 04:36:52;;;;;;;1.93;1.07;;;;;;;;;;4961140;28;94091;-52
2023/05/23 04:39:22;;;;;;;1.50;0.83;;;;;;;;;;4961162;28;93721;-52
2023/05/23 04:41:50;;;;;;;2.13;1.00;;;;;;;;;;4961198;28;92053;-52
2023/05/23 04:44:19;;;;;;;2.00;1.23;;;;;;;;;;4961708;28;91394;-52
2023/05/23 04:46:49;;;;;;;0.77;0.70;;;;;;;;;;4961254;28;93187;-52
2023/05/23 04:49:20;;;;;;;1.50;1.00;;;;;;;;;;4961149;28;93594;-52
2023/05/23 04:51:48;;;;;;;2.20;1.10;;;;;;;;;;4960783;28;92943;-52
2023/05/23 04:54:16;;;;;;;1.57;1.03;;;;;;;;;;4960889;28;92102;-52
2023/05/23 04:56:46;;;;;;;2.23;1.20;;;;;;;;;;4960742;28;92942;-52
2023/05/23 04:59:15;;;;;;;0.87;0.73;;;;;;;;;;4961176;28;92971;-52
2023/05/23 05:01:43;;;;;;;1.43;0.87;;;;;;;;;;4961423;28;92064;-52
2023/05/23 05:04:11;;;;;;;3.33;0.90;;;;;;;;;;4960818;28;91990;-52
2023/05/23 05:06:41;;;;;;;2.00;1.20;;;;;;;;;;4960768;28;93130;-52
2023/05/23 05:09:09;;;;;;;1.63;1.10;;;;;;;;;;4960959;28;94021;-52
2023/05/23 05:11:37;;;;;;;0.90;0.60;;;;;;;;;;4961182;28;92071;-52
2023/05/23 05:14:07;;;;;;;1.57;0.93;;;;;;;;;;4960468;28;92206;-52
2023/05/23 05:16:36;;;;;;;2.10;1.13;;;;;;;;;;4959934;28;94291;-52
2023/05/23 05:19:05;;;;;;;2.63;1.20;;;;;;;;;;4960882;28;95121;-52
2023/05/23 05:21:33;;;;;;;3.03;0.70;;;;;;;;;;4961037;28;91932;-52
2023/05/23 05:24:01;;;;;;;1.20;0.80;;;;;;;;;;4959918;28;92165;-52
2023/05/23 05:26:30;;;;;;;2.60;1.10;;;;;;;;;;4960233;28;93191;-52
2023/05/23 05:28:59;;;;;;;1.70;0.80;;;;;;;;;;4960701;28;93938;-52
2023/05/23 05:31:29;;;;;;;1.20;0.90;;;;;;;;;;4960930;28;91893;-52
2023/05/23 05:33:57;;;;;;;2.73;0.80;;;;;;;;;;4960240;28;92093;-52
2023/05/23 05:36:25;;;;;;;3.50;1.17;;;;;;;;;;4940976;28;94397;-52
2023/05/23 05:38:54;;;;;;;1.67;0.73;;;;;;;;;;4947219;28;93044;-52
2023/05/23 05:41:22;;;;;;;0.93;0.83;;;;;;;;;;4959230;28;92849;-52
2023/05/23 05:43:50;;;;;;;2.80;0.93;;;;;;;;;;4960236;28;92018;-52
2023/05/23 05:46:19;;;;;;;2.37;1.03;;;;;;;;;;4960138;28;93479;-52
2023/05/23 05:48:48;;;;;;;3.00;1.30;;;;;;;;;;4959497;28;93897;-52
2023/05/23 05:51:17;;;;;;;2.20;1.37;;;;;;;;;;4959932;28;92018;-52
2023/05/23 05:53:46;;;;;;;4.97;1.07;;;;;;;;;;4960114;28;92184;-52
2023/05/23 05:56:14;;;;;;;3.80;1.23;;;;;;;;;;4959156;28;93252;-52
2023/05/23 05:58:42;;;;;;;2.33;1.10;;;;;;;;;;4960265;28;93876;-52
2023/05/23 06:01:11;;;;;;;1.60;0.87;;;26.20;59.20;;;;;;4959704;28;92088;-52
2023/05/23 06:03:39;;;;;;;6.27;1.30;;;26.30;66.00;;;;;;4959890;28;92097;-52
2023/05/23 06:06:09;;;;;;;1.67;1.27;;;26.20;66.70;;;;;;4954903;28;94056;-52
2023/05/23 06:08:37;;;;;;;1.20;0.90;;;26.00;68.60;;;;;;4959141;28;94741;-53
2023/05/23 06:11:07;;;;;;;3.70;1.07;;;;;;;;;;4957779;28;92224;-52
2023/05/23 06:13:36;;;;;;;2.33;1.13;;;;;;;;;;4959391;28;92164;-52
2023/05/23 06:16:04;;;;;;;2.07;1.40;;;;;;;;;;4958737;28;93266;-52
2023/05/23 06:18:32;;;;;;;1.00;0.63;;;25.80;73.30;;;;;;4958298;28;93990;-52
2023/05/23 06:21:00;;;;;;;1.43;1.00;;;25.80;69.40;;;;;;4959458;28;93557;-53
2023/05/23 06:23:30;;;;;;;1.53;1.10;;;;;;;;;;4959840;28;91218;-52
2023/05/23 06:25:59;;;;;;;2.23;1.00;;;;;;;;;;4959328;28;94342;-52
2023/05/23 06:28:27;;;;;;;1.10;1.00;;;;;;;;;;4959400;28;92717;-52
2023/05/23 06:30:56;;;;;;;1.27;0.73;;;;;;;;;;4958807;28;93165;-53
2023/05/23 06:33:24;;;;;;;1.10;0.90;;;;;;;;;;4959998;28;92079;-52
2023/05/23 06:35:52;;;;;;;1.87;0.80;;;;;;;;;;4959495;28;93030;-52
2023/05/23 06:38:21;;;;;;;3.87;0.83;;;;;;;;;;4958669;28;94048;-52
2023/05/23 06:40:50;;;;;;;1.80;0.70;;;;;;;;;;4959245;28;92614;-52
2023/05/23 06:43:18;;;;;;;0.80;0.70;;;;;;;;;;4958689;28;92105;-52
2023/05/23 06:45:47;;;;;;;0.83;0.70;;;;;;;;;;4958846;28;94217;-52
2023/05/23 06:48:15;;;;;;;3.70;1.10;;;;;;;;;;4959092;28;92905;-52
2023/05/23 06:50:43;;;;;;;0.87;0.63;;;;;;;;;;4964327;28;92230;-52
2023/05/23 06:53:12;;;;;;;0.83;0.73;;;;;;;;;;4951772;28;92177;-52
2023/05/23 06:55:40;;;;;;;0.40;0.40;;;25.70;66.90;;;;;;4965571;28;94045;-52
2023/05/23 06:58:09;;;;;;;1.47;0.70;;;25.70;72.60;;;;;;4964440;28;94950;-52
2023/05/23 07:00:38;;;;;;;4.87;0.87;;;25.70;63.30;;;;;;4965960;28;91876;-52
2023/05/23 07:03:07;;;;;;;0.60;0.50;;;25.70;70.20;;;;;;4946665;28;92125;-52
2023/05/23 07:05:35;;;;;;;1.47;0.50;;;25.60;66.10;;;;;;4945892;28;94183;-52
2023/05/23 07:08:09;;;;;;;1.17;0.57;;;25.60;69.00;;;;;;4962266;28;93763;-52
2023/05/23 07:10:40;;;;;;;1.90;0.87;;;25.60;69.40;;;;;;4965484;28;93072;-52
2023/05/23 07:13:10;;;;;;;1.80;0.67;;;25.60;75.90;;;;;;4946561;28;91427;-52
2023/05/23 07:15:38;;;;;;;2.53;0.77;;;25.70;75.90;;;;;;4953536;28;94239;-52
2023/05/23 07:18:06;;;;;;;0.93;0.50;;;;;;;;;;4965243;28;94014;-52
2023/05/23 07:20:35;;;;;;;0.70;0.70;;;;;;;;;;4977073;28;93074;-52
2023/05/23 07:23:03;;;;;;;4.67;1.13;;;25.60;72.80;;;;;;4964934;28;92464;-52
2023/05/23 07:25:31;;;;;;;1.27;0.87;;;;;;;;;;4964199;28;94341;-52
2023/05/23 07:27:59;;;;;;;3.27;0.77;;;25.60;76.70;;;;;;4968485;28;94242;-50
2023/05/23 07:30:29;;;;;;;3.37;0.50;;;;;;;;;;4973356;28;92174;-50
2023/05/23 07:33:00;;;;;;;1.60;0.60;;;;;;;;;;4984799;28;92253;-50
2023/05/23 07:35:29;;;;;;;0.60;0.57;;;;;;;;;;4984927;28;94219;-50
2023/05/23 07:37:57;;;;;;;1.93;0.73;;;25.70;61.20;;;;;;4985246;28;92444;-50
2023/05/23 07:40:25;;;;;;;2.03;0.80;;;;;;;;;;4985244;28;91933;-50
2023/05/23 07:42:54;;;;;;;4.47;1.00;;;;;;;;;;4985242;28;92025;-50
2023/05/23 07:45:22;;;;;;;2.90;0.63;;;;;;;;;;4984733;28;95015;-50
2023/05/23 07:47:52;;;;;;;0.63;0.40;;;;;;;;;;4984522;28;94929;-50
2023/05/23 07:50:21;;;;;;;1.37;0.60;;;;;;;;;;4985039;28;92000;-50
2023/05/23 07:52:50;;;;;;;4.37;0.80;;;;;;;;;;4985034;28;92013;-50
2023/05/23 07:55:19;;;;;;;1.07;0.60;;;;;;;;;;4985038;28;94132;-50
2023/05/23 07:57:47;;;;;;;2.53;0.60;;;;;;;;;;4984977;28;93806;-50
2023/05/23 08:00:16;;;;;;;1.33;0.60;;;;;;;;;;4985185;28;92043;-50
2023/05/23 08:02:44;;;;;;;2.00;0.60;;;25.50;59.20;;;;;;4981882;28;91358;-50
2023/05/23 08:05:13;;;;;;;3.40;0.50;;;25.50;64.00;;;;;;4981328;28;94352;-50
2023/05/23 08:07:41;;;;;;;4.43;0.67;;;25.50;65.40;;;;;;4980904;28;92917;-50
2023/05/23 08:10:09;;;;;;;4.80;1.10;;;25.50;65.90;;;;;;4980877;28;93010;-50
2023/05/23 08:12:38;;;;;;;5.23;0.60;;;25.60;66.20;;;;;;4980987;28;92099;-50
2023/05/23 08:15:07;;;;;;;0.93;0.50;;;25.60;68.00;;;;;;4980841;28;92995;-50
2023/05/23 08:17:35;;;;;;;6.50;0.60;;;;;;;;;;4981195;28;92948;-50
2023/05/23 08:20:04;;;;;;;1.20;0.70;;;;;;;;;;4981424;28;92066;-50
2023/05/23 08:22:34;;;;;;;1.13;0.70;;;25.50;72.30;;;;;;4981348;28;92053;-50
2023/05/23 08:25:02;;;;;;;5.10;0.97;;;;;;;;;;4981287;28;92803;-50
2023/05/23 08:27:31;;;;;;;2.30;0.80;;;;;;;;;;4980602;28;92642;-50
2023/05/23 08:29:59;;;;;;;1.90;0.57;;;;;;;;;;4964109;28;92121;-50
2023/05/23 08:32:28;;;;;;;0.60;0.60;;;;;;;;;;4960823;28;92395;-50
2023/05/23 08:34:57;;;;;;;2.50;0.53;;;;;;;;;;4960014;28;95100;-50
2023/05/23 08:37:25;;;;;;;3.70;0.73;;;;;;;;;;4961173;28;94747;-50
2023/05/23 08:39:55;;;;;;;2.50;0.60;;;;;;;;;;4961045;28;91958;-50
2023/05/23 08:42:23;;;;;;;2.10;0.53;;;;;;;;;;4960849;28;92059;-50
2023/05/23 08:44:52;;;;;;;0.93;0.50;;;;;;;;;;4961261;28;93120;-50
2023/05/23 08:47:21;;;;;;;3.30;0.70;;;;;;;;;;4961226;28;93070;-50
2023/05/23 08:49:51;;;;;;;1.30;0.50;;;;;;;;;;4961245;28;92082;-50
2023/05/23 08:52:19;;;;;;;2.30;0.77;;;25.40;55.40;;;;;;4961606;28;91361;-51
2023/05/23 08:54:47;;;;;;;0.40;0.30;;;25.40;56.40;;;;;;4960833;28;92195;-50
2023/05/23 08:57:16;;;;;;;3.53;0.90;;;25.40;57.50;;;;;;4960829;28;91881;-51
2023/05/23 08:59:44;;;;;;;1.27;0.70;;;25.30;58.80;;;;;;4960997;28;93144;-50
2023/05/23 09:02:12;;;;;;;1.60;0.70;;;25.30;58.40;;;;;;4961161;28;92100;-51
2023/05/23 09:04:40;;;;;;;5.50;1.17;;;25.30;57.60;;;;;;4960813;28;94158;-51
2023/05/23 09:07:08;;;;;;;1.23;0.40;;;25.30;58.80;;;;;;4960451;28;93847;-50
2023/05/23 09:09:37;;;;;;;2.50;0.90;;;;;;;;;;4960844;28;92965;-51
2023/05/23 09:12:05;;;;;;;2.40;0.77;;;25.30;64.70;;;;;;4960635;28;92148;-50
2023/05/23 09:14:36;;;;;;;1.77;0.60;;;;;;;;;;4960383;28;94279;-50
2023/05/23 09:17:04;;;;;;;2.73;0.97;;;;;;;;;;4960675;28;92747;-50
2023/05/23 09:19:33;;;;;;;18.10;1.13;;;;;;;;;;4960796;28;92167;-50
2023/05/23 09:22:03;;;;;;;5.10;0.73;;;;;;;;;;4960799;28;92084;-51
2023/05/23 09:24:35;;;;;;;3.13;0.83;;;;;;;;;;4960058;28;94089;-50
2023/05/23 09:27:06;;;;;;;1.53;0.70;;;;;;;;;;4957005;28;94726;-50
2023/05/23 09:29:36;;;;;;;5.80;0.60;;;;;;;;;;4960556;28;92073;-50
2023/05/23 09:32:11;;;;;;;5.40;0.90;;;;;;;;;;4960442;28;92212;-50
2023/05/23 09:34:41;;;;;;;2.17;0.43;;;;;;;;;;4958327;28;94273;-50
2023/05/23 09:37:17;;;;;;;1.20;0.50;;;;;;;;;;4958606;28;92942;-51
2023/05/23 09:39:47;;;;;;;0.57;0.40;;;;;;;;;;4960665;28;91986;-51
2023/05/23 09:42:19;;;;;;;0.40;0.40;;;;;;;;;;4960624;28;92552;-51
2023/05/23 09:44:48;;;;;;;4.40;0.60;;;25.40;56.00;;;;;;4960365;28;93136;-51
2023/05/23 09:47:16;;;;;;;2.43;0.70;;;25.40;58.20;;;;;;4960024;28;92858;-50
2023/05/23 09:49:46;;;;;;;1.10;0.67;;;;;;;;;;4959778;28;93024;-51
2023/05/23 09:52:14;;;;;;;3.33;0.67;;;;;;;;;;4960580;28;92099;-50
2023/05/23 09:54:45;;;;;;;2.60;0.67;;;;;;;;;;4960141;28;93318;-51
2023/05/23 09:57:15;;;;;;;1.17;0.47;;;;;;;;;;4960051;28;93176;-50
2023/05/23 09:59:43;;;;;;;0.50;0.50;;;;;;;;;;4960356;28;92073;-51
2023/05/23 10:02:13;;;;;;;0.50;0.50;;;;;;;;;;4960675;28;92456;-50
2023/05/23 10:04:41;;;;;;;1.23;0.50;;;;;;;;;;4959984;28;94225;-50
2023/05/23 10:07:13;;;;;;;7.27;0.97;;;;;;;;;;4960524;28;93909;-51
2023/05/23 10:09:41;;;;;;;1.67;0.70;;;;;;;;;;4960626;28;92105;-51
2023/05/23 10:12:31;;;;;;;1.77;0.93;;;;;;;;;;4960221;28;92055;-50
2023/05/23 10:15:02;;;;;;;2.23;0.73;;;;;;;;;;4959667;28;94956;-50
2023/05/23 10:17:33;;;;;;;3.60;0.70;;;;;;;;;;4959845;28;93879;-50
2023/05/23 10:20:02;;;;;;;2.43;0.50;;;;;;;;;;4960186;28;92093;-50
2023/05/23 10:22:32;;;;;;;1.80;0.70;;;;;;;;;;4960058;28;92100;-51
2023/05/23 10:25:00;;;;;;;1.57;0.60;;;;;;;;;;4958829;28;94389;-50
2023/05/23 10:27:29;;;;;;;3.23;0.70;;;;;;;;;;4959579;28;93843;-50
2023/05/23 10:29:57;;;;;;;0.87;0.60;;;;;;;;;;4960024;28;92100;-50
2023/05/23 10:32:26;;;;;;;2.30;1.07;;;;;;;;;;4960547;28;91192;-50
2023/05/23 10:34:57;;;;;;;1.13;0.83;;;;;;;;;;4956580;28;94099;-50
2023/05/23 10:37:28;;;;;;;2.97;0.50;;;;;;;;;;4959300;28;93853;-50
2023/05/23 10:39:58;;;;;;;2.90;0.60;;;;;;;;;;4958953;28;93019;-51
2023/05/23 10:42:29;;;;;;;3.33;0.73;;;;;;;;;;4955691;28;92115;-50
2023/05/23 10:45:12;;;;;;;4.47;0.77;;;;;;;;;;4958540;28;94283;-51
2023/05/23 10:47:40;;;;;;;1.03;0.53;;;;;;;;;;4958491;28;94087;-51
2023/05/23 10:50:14;;;;;;;1.80;1.20;;;;;;;;;;4959637;28;92178;-51
2023/05/23 10:52:42;;;;;;;1.10;0.70;;;;;;;;;;4958789;28;92098;-50
2023/05/23 10:55:14;;;;;;;1.03;0.60;;;;;;;;;;4958025;28;93264;-51
2023/05/23 10:57:42;;;;;;;4.43;0.73;;;;;;;;;;4958677;28;93926;-51
2023/05/23 11:00:15;;;;;;;1.63;0.60;;;;;;;;;;4959076;28;92142;-50
2023/05/23 11:02:55;;;;;;;3.40;0.90;;;;;;;;;;4958896;28;92033;-50
2023/05/23 11:05:27;;;;;;;0.80;0.50;;;;;;;;;;4963228;28;95080;-51
2023/05/23 11:08:08;;;;;;;2.37;0.60;;;25.30;55.10;;;;;;4956160;28;93900;-51
2023/05/23 11:10:52;;;;;;;1.77;0.60;;;25.40;57.80;;;;;;4957153;28;92606;-50
2023/05/23 11:13:21;;;;;;;2.93;1.00;;;25.30;58.00;;;;;;4958527;28;92167;-50
2023/05/23 11:15:49;;;;;;;2.73;0.60;;;25.30;61.60;;;;;;4957237;28;94301;-51
2023/05/23 11:18:22;;;;;;;1.03;0.40;;;25.30;61.40;;;;;;4958515;28;93746;-51
2023/05/23 11:20:55;;;;;;;2.23;1.00;;;25.30;63.20;;;;;;4958842;28;91999;-50
2023/05/23 11:23:24;;;;;;;3.40;0.73;;;;;;;;;;4958899;28;91411;-51
2023/05/23 11:25:54;;;;;;;3.00;0.40;;;;;;;;;;4956813;28;93277;-51
2023/05/23 11:28:22;;;;;;;4.40;0.67;;;;;;;;;;4957193;28;93907;-51
2023/05/23 11:30:51;;;;;;;1.57;0.50;;;;;;;;;;4956810;28;93482;-50
2023/05/23 11:33:20;;;;;;;3.50;0.73;;;;;;;;;;4955253;28;92332;-51
2023/05/23 11:35:50;;;;;;;1.60;0.80;;;;;;;;;;4957868;28;93048;-51
2023/05/23 11:38:20;;;;;;;1.57;0.60;;;;;;;;;;4961510;28;93840;-51
2023/05/23 11:40:48;;;;;;;1.50;0.63;;;;;;;;;;4962516;28;92100;-51
2023/05/23 11:43:18;;;;;;;0.60;0.60;;;;;;;;;;4962298;28;92148;-51
2023/05/23 11:45:47;;;;;;;1.57;0.43;;;;;;;;;;4958939;28;94653;-51
2023/05/23 11:48:15;;;;;;;1.33;0.47;;;;;;;;;;4961369;28;93770;-51
2023/05/23 11:50:44;;;;;;;9.93;0.70;;;;;;;;;;4962118;28;91795;-51
2023/05/23 11:53:15;;;;;;;1.80;0.60;;;;;;;;;;4962063;28;92088;-50
2023/05/23 11:55:51;;;;;;;1.20;0.70;;;;;;;;;;4960673;28;94982;-51
2023/05/23 11:58:20;;;;;;;2.73;0.60;;;;;;;;;;4961186;28;94792;-51
2023/05/23 12:00:49;;;;;;;4.73;0.70;;;;;;;;;;4962227;28;92109;-51
2023/05/23 12:03:19;;;;;;;1.60;0.70;;;25.40;52.80;;;;;;4962041;28;92028;-51
2023/05/23 12:05:48;;;;;;;2.40;0.63;;;25.50;55.40;;;;;;4961937;28;94059;-51
2023/05/23 12:08:16;;;;;;;1.37;0.70;;;25.50;56.30;;;;;;4961627;28;94014;-51
2023/05/23 12:10:52;;;;;;;0.80;0.43;;;25.50;57.30;;;;;;4962019;28;92108;-51
2023/05/23 12:13:20;;;;;;;3.67;0.60;;;25.50;58.40;;;;;;4962014;28;91407;-51
2023/05/23 12:15:48;;;;;;;0.50;0.40;;;25.60;60.40;;;;;;4961400;28;94559;-51
2023/05/23 12:18:19;;;;;;;1.27;0.63;;;25.50;62.70;;;;;;4961225;28;93919;-51
2023/05/23 12:20:49;;;;;;;1.53;0.53;;;25.50;63.10;;;;;;4961070;28;93031;-51
2023/05/23 12:23:20;;;;;;;1.33;0.80;;;25.50;66.10;;;;;;4960813;28;92158;-51
2023/05/23 12:25:53;;;;;;;2.80;0.63;;;25.60;66.10;;;;;;4959689;28;93200;-51
2023/05/23 12:28:21;;;;;;;2.43;0.40;;;25.60;66.90;;;;;;4956236;28;94335;-50
2023/05/23 12:30:50;;;;;;;2.33;0.83;;;25.50;67.80;;;;;;4959481;28;92011;-51
2023/05/23 12:33:19;;;;;;;2.67;1.50;;;25.60;69.30;;;;;;4960775;28;92071;-51
2023/05/23 12:35:47;;;;;;;0.63;0.53;;;;;;;;;;4960915;28;94291;-51
2023/05/23 12:38:16;;;;;;;2.07;0.70;;;25.70;69.40;;;;;;4960360;28;93998;-51
2023/05/23 12:40:45;;;;;;;0.60;0.40;;;;;;;;;;4961104;28;92176;-51
2023/05/23 12:43:16;;;;;;;1.07;0.50;;;;;;;;;;4961608;28;92216;-51
2023/05/23 12:45:44;;;;;;;2.70;0.73;;;25.70;67.70;;;;;;4960521;28;95155;-51
2023/05/23 12:48:13;;;;;;;4.37;0.90;;;;;;;;;;4960358;28;94711;-51
2023/05/23 12:50:41;;;;;;;0.77;0.40;;;24.90;61.30;;;;;;4961557;28;92121;-51
2023/05/23 12:53:10;;;;;;;1.50;0.40;;;25.70;62.10;;;;;;4961575;28;92025;-51
2023/05/23 12:55:38;;;;;;;1.83;0.60;;;25.70;63.90;;;;;;4960975;28;94372;-51
2023/05/23 12:58:06;;;;;;;4.17;1.13;;;25.80;66.50;;;;;;4960577;28;93870;-51
2023/05/23 13:00:36;;;;;;;7.33;0.70;;;;;;;;;;4961228;28;93400;-51
2023/05/23 13:03:05;;;;;;;2.83;0.70;;;25.80;65.70;;;;;;4961790;28;91226;-51
2023/05/23 13:05:34;;;;;;;2.70;1.00;;;;;;;;;;4960973;28;93982;-51
2023/05/23 13:08:02;;;;;;;1.63;0.70;;;;;;;;;;4960855;28;93939;-51
2023/05/23 13:10:30;;;;;;;2.10;0.70;;;;;;;;;;4961064;28;93098;-51
2023/05/23 13:12:59;;;;;;;4.50;0.73;;;;;;;;;;4961226;28;92057;-51
2023/05/23 13:15:28;;;;;;;0.80;0.40;;;;;;;;;;4960695;28;93092;-51
2023/05/23 13:17:58;;;;;;;2.47;0.70;;;;;;;;;;4960820;28;93836;-51
2023/05/23 13:20:29;;;;;;;0.57;0.50;;;;;;;;;;4960953;28;92066;-50
2023/05/23 13:22:57;;;;;;;0.87;0.30;;;25.90;52.30;;;;;;4961130;28;92159;-51
2023/05/23 13:25:26;;;;;;;0.30;0.30;;;25.90;59.10;;;;;;4960455;28;94281;-51
2023/05/23 13:27:54;;;;;;;2.13;0.90;;;25.80;61.80;;;;;;4960483;28;94112;-50
2023/05/23 13:30:23;;;;;;;0.77;0.43;;;26.00;63.00;;;;;;4960760;28;92118;-51
2023/05/23 13:32:51;;;;;;;0.60;0.50;;;25.80;64.90;;;;;;4960944;28;91999;-51
2023/05/23 13:35:21;;;;;;;1.07;0.40;;;25.80;67.60;;;;;;4959690;28;95058;-51
2023/05/23 13:37:50;;;;;;;0.53;0.53;;;;;;;;;;4960421;28;94643;-51
2023/05/23 13:40:19;;;;;;;3.17;0.60;;;;;;;;;;4960347;28;91994;-51
2023/05/23 13:42:48;;;;;;;2.33;0.60;;;;;;;;;;4960570;28;92044;-51
2023/05/23 13:45:17;;;;;;;5.17;0.57;;;;;;;;;;4960220;28;94260;-51
2023/05/23 13:47:46;;;;;;;1.57;0.63;;;;;;;;;;4960056;28;93847;-51
2023/05/23 13:50:15;;;;;;;0.63;0.40;;;;;;;;;;4960465;28;92155;-51
2023/05/23 13:52:45;;;;;;;0.60;0.60;;;25.80;55.90;;;;;;4960816;28;91226;-51
2023/05/23 13:55:17;;;;;;;3.10;0.60;;;25.80;53.80;;;;;;4960134;28;94345;-51
2023/05/23 13:57:45;;;;;;;4.37;0.73;;;25.70;54.20;;;;;;4959490;28;93864;-51
2023/05/23 14:00:15;;;;;;;1.43;0.97;;;25.70;53.60;;;;;;4959576;28;93045;-51
2023/05/23 14:02:43;;;;;;;0.93;0.60;;;25.70;53.60;;;;;;4960088;28;92061;-51
2023/05/23 14:05:11;;;;;;;0.87;0.50;;;;;;;;;;4959535;28;94210;-51
2023/05/23 14:07:41;;;;;;;1.90;0.40;;;25.80;48.00;;;;;;4960209;28;92746;-51
2023/05/23 14:10:11;;;;;;;4.10;0.80;;;;;;;;;;4959990;28;92085;-51
2023/05/23 14:12:42;;;;;;;1.20;0.37;;;;;;;;;;4960023;28;92204;-50
2023/05/23 14:15:12;;;;;;;2.17;0.37;;;25.80;54.10;;;;;;4959577;28;94149;-50
2023/05/23 14:17:40;;;;;;;4.27;0.77;;;25.90;54.80;;;;;;4960091;28;93834;-50